createdAt,value
2023-01-19T01:08:53.151Z,1.4
2023-01-19T01:59:02.519Z,1.5
2023-01-19T02:09:04.956Z,1.6
2023-01-19T02:29:09.005Z,1.5
2023-01-19T02:39:11.583Z,1.6
2023-01-19T02:49:13.905Z,1.6
2023-01-19T02:59:16.233Z,1.5
2023-01-19T03:09:18.401Z,1.4
2023-01-19T03:19:20.850Z,1.5
2023-01-19T03:29:22.766Z,1.4
2023-01-19T03:39:24.728Z,1.5
2023-01-19T03:49:26.594Z,1.5
2023-01-19T03:59:29.101Z,1.6
2023-01-19T04:09:31.646Z,1.7
2023-01-19T04:39:38.860Z,0.9
2023-01-19T04:59:42.964Z,0.1
2023-01-19T05:09:45.243Z,0.1
2023-01-19T05:19:47.630Z,0.1
2023-01-19T05:39:51.472Z,0.1
2023-01-19T05:49:53.737Z,0.1
2023-01-19T05:59:56.144Z,0
2023-01-19T06:09:57.940Z,0
2023-01-19T06:20:00.568Z,0
2023-01-19T06:30:03.221Z,0
2023-01-19T06:40:05.429Z,0
2023-01-19T06:50:07.148Z,0
2023-01-19T07:00:09.617Z,0
2023-01-19T07:10:12.187Z,0
2023-01-19T07:20:14.743Z,0
2023-01-19T07:40:19.142Z,0.1
2023-01-19T08:00:23.389Z,0.2
2023-01-19T08:10:25.337Z,0.3
2023-01-19T08:20:28.005Z,0.5
2023-01-19T08:30:30.596Z,0.7
2023-01-19T08:40:32.654Z,0.8
2023-01-19T08:50:35.174Z,0.8
2023-01-19T09:00:37.021Z,0.8
2023-01-19T09:10:39.205Z,0.9
2023-01-19T09:20:41.224Z,1
2023-01-19T09:30:43.726Z,1.1
2023-01-19T09:40:45.464Z,1.2
2023-01-19T10:00:49.229Z,1.3
2023-01-19T10:20:53.397Z,1.4
2023-01-19T10:30:55.901Z,1.5
2023-01-19T10:40:57.950Z,1.4
2023-01-19T10:50:59.638Z,1.5
2023-01-19T11:01:02.050Z,1.6
2023-01-19T11:11:04.674Z,1.7
2023-01-19T11:21:06.545Z,1.6
2023-01-19T11:31:08.807Z,1.8
2023-01-19T11:41:10.623Z,2.4
2023-01-19T11:51:12.345Z,2.8
2023-01-19T12:01:14.533Z,2.5
2023-01-19T12:11:16.729Z,2.4
2023-01-19T12:21:18.903Z,2.3
2023-01-19T12:31:20.909Z,2.3
2023-01-19T12:41:23.036Z,2.3
2023-01-19T12:51:25.326Z,2.5
2023-01-19T13:01:27.251Z,2.4
2023-01-19T13:21:32.019Z,2.6
2023-01-19T13:31:34.666Z,2.8
2023-01-19T13:41:36.426Z,2.5
2023-01-19T13:51:38.401Z,2.4
2023-01-19T14:01:41.034Z,2.4
2023-01-19T14:11:43.209Z,2.5
2023-01-19T14:21:45.798Z,2.5
2023-01-19T14:31:47.866Z,2.5
2023-01-19T14:41:49.681Z,2.4
2023-01-19T14:51:51.430Z,2.3
2023-01-19T15:01:53.665Z,2.4
2023-01-19T15:11:56.236Z,2.4
2023-01-19T15:21:58.243Z,2.4
2023-01-19T15:32:00.638Z,2.2
2023-01-19T15:42:02.366Z,2
2023-01-19T15:52:04.810Z,1.9
2023-01-19T16:02:07.528Z,1.7
2023-01-19T16:12:09.494Z,1.4
2023-01-19T16:22:11.701Z,1.2
2023-01-19T16:32:13.708Z,1.2
2023-01-19T16:42:15.992Z,1.2
2023-01-19T16:52:17.748Z,1.2
2023-01-19T17:02:19.619Z,1
2023-01-19T17:22:24.195Z,0.9
2023-01-19T17:32:26.133Z,0.9
2023-01-19T17:42:28.531Z,0.8
2023-01-19T17:52:30.567Z,0.8
2023-01-19T18:02:33.098Z,0.7
2023-01-19T18:12:35.010Z,0.6
2023-01-19T18:22:37.694Z,0.6
2023-01-19T18:32:40.234Z,0.4
2023-01-19T18:42:41.937Z,0.4
2023-01-19T19:02:46.478Z,0.7
2023-01-19T19:12:49.046Z,0.8
2023-01-19T19:22:51.118Z,0.8
2023-01-19T19:32:53.368Z,0.8
2023-01-19T19:42:58.390Z,0.9
2023-01-19T19:52:58.306Z,0.9
2023-01-19T20:03:00.793Z,0.9
2023-01-19T20:13:02.663Z,1.1
2023-01-19T20:23:04.807Z,1.1
2023-01-19T20:33:06.569Z,1.2
2023-01-19T20:43:09.160Z,1.2
2023-01-19T20:53:11.107Z,1.2
2023-01-19T21:03:13.303Z,1.2
2023-01-19T21:13:15.235Z,1.2
2023-01-19T21:23:17.521Z,1.3
2023-01-19T21:33:19.710Z,1.3
2023-01-19T21:43:22.267Z,1.3
2023-01-19T21:53:24.407Z,1.4
2023-01-19T22:03:26.203Z,1.4
2023-01-19T22:13:27.949Z,1.4
2023-01-19T22:23:30.459Z,1.4
2023-01-19T22:33:32.190Z,1.4
2023-01-19T22:43:34.744Z,1.4
2023-01-19T22:53:37.180Z,1.4
2023-01-19T23:03:38.906Z,1.4
2023-01-19T23:13:40.880Z,1.4
2023-01-19T23:23:43.156Z,1.4
2023-01-19T23:25:10.487Z,1.4
2023-01-19T23:33:53.808Z,1.3
2023-01-19T23:43:55.759Z,1.3
2023-01-19T23:53:57.539Z,1.3
